createdAt,value
2017-09-27T00:01:01.931Z,102487.27
2017-09-27T00:03:30.255Z,102483.01
2017-09-27T00:05:59.393Z,102484.53
2017-09-27T00:08:27.707Z,102487.31
2017-09-27T00:10:56.021Z,102486.98
2017-09-27T00:13:25.098Z,102486.23
2017-09-27T00:15:53.402Z,102485.91
2017-09-27T00:18:21.709Z,102480.63
2017-09-27T00:20:50.014Z,102480.45
2017-09-27T00:23:18.333Z,102475.91
2017-09-27T00:25:46.643Z,102480.45
2017-09-27T00:28:15.710Z,102482.72
2017-09-27T00:30:44.021Z,102481.88
2017-09-27T00:33:13.943Z,102482.81
2017-09-27T00:35:43.033Z,102492.62
2017-09-27T00:38:12.099Z,102491.88
2017-09-27T00:40:40.422Z,102493.02
2017-09-27T00:43:09.508Z,102492.09
2017-09-27T00:45:38.773Z,102494.13
2017-09-27T00:48:07.100Z,102491.29
2017-09-27T00:50:36.175Z,102492.30
2017-09-27T00:53:04.491Z,102488.96
2017-09-27T00:55:33.591Z,102486.12
2017-09-27T00:58:01.901Z,102485.80
2017-09-27T01:00:30.299Z,102491.89
2017-09-27T01:02:58.602Z,102487.39
2017-09-27T01:05:26.907Z,102491.09
2017-09-27T01:07:56.703Z,102489.59
2017-09-27T01:10:24.996Z,102496.91
2017-09-27T01:12:53.293Z,102489.36
2017-09-27T01:15:21.613Z,102494.81
2017-09-27T01:17:49.925Z,102497.17
2017-09-27T01:20:18.243Z,102496.88
2017-09-27T01:22:46.546Z,102498.22
2017-09-27T01:25:14.969Z,102500.06
2017-09-27T01:27:43.271Z,102492.84
2017-09-27T01:30:12.341Z,102502.39
2017-09-27T01:32:40.634Z,102503.41
2017-09-27T01:35:08.947Z,102504.00
2017-09-27T01:37:37.263Z,102500.75
2017-09-27T01:40:05.560Z,102498.48
2017-09-27T01:42:33.881Z,102500.09
2017-09-27T01:45:02.957Z,102498.33
2017-09-27T01:47:31.254Z,102498.09
2017-09-27T01:50:00.339Z,102497.13
2017-09-27T01:52:30.131Z,102502.44
2017-09-27T01:54:58.473Z,102503.36
2017-09-27T01:57:27.626Z,102499.52
2017-09-27T01:59:55.933Z,102497.00
2017-09-27T02:02:24.239Z,102494.50
2017-09-27T02:04:52.585Z,102498.61
2017-09-27T02:07:20.899Z,102493.42
2017-09-27T02:09:49.991Z,102485.88
2017-09-27T02:12:19.137Z,102494.94
2017-09-27T02:14:47.603Z,102496.91
2017-09-27T02:17:15.937Z,102490.89
2017-09-27T02:19:44.243Z,102493.16
2017-09-27T02:22:13.359Z,102489.98
2017-09-27T02:24:41.673Z,102498.03
2017-09-27T02:27:09.993Z,102485.39
2017-09-27T02:29:39.057Z,102484.23
2017-09-27T02:32:07.379Z,102484.94
2017-09-27T02:34:36.475Z,102484.10
2017-09-27T02:37:05.535Z,102483.86
2017-09-27T02:39:33.836Z,102481.95
2017-09-27T02:42:02.196Z,102478.52
2017-09-27T02:44:30.514Z,102478.19
2017-09-27T02:46:58.832Z,102479.20
2017-09-27T02:49:27.215Z,102483.91
2017-09-27T02:51:55.530Z,102483.16
2017-09-27T02:54:23.862Z,102484.37
2017-09-27T02:56:52.930Z,102483.95
2017-09-27T02:59:21.246Z,102484.55
2017-09-27T03:01:49.553Z,102483.55
2017-09-27T03:04:17.857Z,102485.66
2017-09-27T03:06:46.172Z,102488.19
2017-09-27T03:09:15.303Z,102480.86
2017-09-27T03:11:43.622Z,102479.27
2017-09-27T03:14:11.997Z,102479.03
2017-09-27T03:16:40.314Z,102479.30
2017-09-27T03:19:08.631Z,102477.11
2017-09-27T03:21:36.962Z,102469.66
2017-09-27T03:24:05.283Z,102470.92
2017-09-27T03:26:33.580Z,102466.39
2017-09-27T03:29:01.878Z,102460.11
2017-09-27T03:31:30.220Z,102455.58
2017-09-27T03:33:59.304Z,102455.41
2017-09-27T03:36:27.617Z,102449.53
2017-09-27T03:38:55.910Z,102456.16
2017-09-27T03:41:24.228Z,102455.65
2017-09-27T03:43:52.523Z,102458.66
2017-09-27T03:46:20.844Z,102471.05
2017-09-27T03:48:49.163Z,102462.09
2017-09-27T03:51:17.479Z,102464.65
2017-09-27T03:53:46.580Z,102463.94
2017-09-27T03:56:15.648Z,102457.44
2017-09-27T03:58:43.962Z,102454.25
2017-09-27T04:01:13.059Z,102464.48
2017-09-27T04:03:42.156Z,102464.48
2017-09-27T04:06:11.254Z,102472.94
2017-09-27T04:08:40.342Z,102468.83
2017-09-27T04:11:08.692Z,102466.06
2017-09-27T04:13:37.000Z,102458.76
2017-09-27T04:16:05.323Z,102455.06
2017-09-27T04:18:33.632Z,102451.13
2017-09-27T04:21:01.973Z,102451.97
2017-09-27T04:23:31.065Z,102451.97
2017-09-27T04:26:00.213Z,102460.02
2017-09-27T04:28:28.536Z,102457.09
2017-09-27T04:30:57.709Z,102457.42
2017-09-27T04:33:26.030Z,102456.91
2017-09-27T04:35:55.131Z,102455.06
2017-09-27T04:38:24.232Z,102458.02
2017-09-27T04:40:53.297Z,102456.34
2017-09-27T04:43:21.621Z,102456.43
2017-09-27T04:45:49.941Z,102461.70
2017-09-27T04:48:18.425Z,102464.89
2017-09-27T04:50:46.761Z,102459.53
2017-09-27T04:53:15.825Z,102463.97
2017-09-27T04:55:44.208Z,102459.53
2017-09-27T04:58:12.601Z,102463.80
2017-09-27T05:00:40.901Z,102460.28
2017-09-27T05:03:09.210Z,102457.92
2017-09-27T05:05:37.525Z,102458.34
2017-09-27T05:08:05.853Z,102454.14
2017-09-27T05:10:35.011Z,102443.84
2017-09-27T05:13:03.345Z,102450.95
2017-09-27T05:15:32.413Z,102453.22
2017-09-27T05:18:00.773Z,102458.34
2017-09-27T05:20:29.815Z,102467.99
2017-09-27T05:22:58.893Z,102469.09
2017-09-27T05:25:27.205Z,102466.28
2017-09-27T05:27:55.527Z,102471.82
2017-09-27T05:30:23.849Z,102469.56
2017-09-27T05:32:52.167Z,102470.81
2017-09-27T05:35:20.481Z,102476.77
2017-09-27T05:37:48.793Z,102480.46
2017-09-27T05:40:17.110Z,102481.71
2017-09-27T05:42:45.424Z,102481.63
2017-09-27T05:45:13.737Z,102489.91
2017-09-27T05:47:42.084Z,102486.81
2017-09-27T05:50:10.406Z,102489.50
2017-09-27T05:52:39.513Z,102486.22
2017-09-27T05:55:08.627Z,102480.66
2017-09-27T05:57:36.927Z,102482.56
2017-09-27T06:00:05.259Z,102493.80
2017-09-27T06:02:33.578Z,102492.22
2017-09-27T06:05:01.885Z,102494.35
2017-09-27T06:07:30.246Z,102490.68
2017-09-27T06:09:58.577Z,102495.63
2017-09-27T06:12:26.902Z,102494.28
2017-09-27T06:14:55.205Z,102496.88
2017-09-27T06:17:23.690Z,102496.38
2017-09-27T06:19:51.995Z,102502.33
2017-09-27T06:22:20.311Z,102499.73
2017-09-27T06:24:49.384Z,102496.39
2017-09-27T06:27:17.701Z,102496.23
2017-09-27T06:29:46.777Z,102497.16
2017-09-27T06:32:15.197Z,102502.27
2017-09-27T06:34:43.501Z,102502.61
2017-09-27T06:37:11.799Z,102498.73
2017-09-27T06:39:40.138Z,102495.97
2017-09-27T06:42:08.451Z,102497.89
2017-09-27T06:44:36.773Z,102506.09
2017-09-27T06:47:05.111Z,102503.95
2017-09-27T06:49:33.426Z,102511.70
2017-09-27T06:52:01.718Z,102505.71
2017-09-27T06:54:30.799Z,102508.05
2017-09-27T06:56:59.098Z,102499.91
2017-09-27T06:59:27.417Z,102507.87
2017-09-27T07:01:55.727Z,102510.97
2017-09-27T07:04:24.062Z,102508.63
2017-09-27T07:06:53.128Z,102499.81
2017-09-27T07:09:21.434Z,102510.69
2017-09-27T07:11:50.496Z,102511.83
2017-09-27T07:14:18.863Z,102515.17
2017-09-27T07:16:47.182Z,102517.59
2017-09-27T07:19:15.519Z,102515.74
2017-09-27T07:21:43.929Z,102521.52
2017-09-27T07:24:12.231Z,102517.00
2017-09-27T07:26:41.325Z,102524.78
2017-09-27T07:29:09.733Z,102530.72
2017-09-27T07:31:38.838Z,102533.86
2017-09-27T07:34:07.173Z,102532.84
2017-09-27T07:36:35.505Z,102533.75
2017-09-27T07:39:04.601Z,102539.00
2017-09-27T07:41:32.921Z,102544.73
2017-09-27T07:44:01.247Z,102548.00
2017-09-27T07:46:29.654Z,102541.61
2017-09-27T07:48:57.955Z,102536.48
2017-09-27T07:51:26.247Z,102536.14
2017-09-27T07:53:54.554Z,102539.09
2017-09-27T07:56:22.860Z,102539.73
2017-09-27T07:58:51.947Z,102542.21
2017-09-27T08:01:20.259Z,102539.33
2017-09-27T08:03:49.341Z,102538.37
2017-09-27T08:06:18.399Z,102541.83
2017-09-27T08:08:46.740Z,102546.61
2017-09-27T08:11:15.055Z,102542.48
2017-09-27T08:13:43.453Z,102539.20
2017-09-27T08:16:11.787Z,102530.82
2017-09-27T08:18:40.104Z,102532.31
2017-09-27T08:21:08.439Z,102524.64
2017-09-27T08:23:37.516Z,102525.33
2017-09-27T08:26:05.834Z,102532.94
2017-09-27T08:28:34.150Z,102529.74
2017-09-27T08:31:02.467Z,102518.73
2017-09-27T08:33:30.783Z,102514.55
2017-09-27T08:35:59.086Z,102517.44
2017-09-27T08:38:27.398Z,102525.97
2017-09-27T08:40:55.714Z,102527.84
2017-09-27T08:43:24.809Z,102532.44
2017-09-27T08:45:53.910Z,102532.67
2017-09-27T08:48:22.991Z,102527.49
2017-09-27T08:50:51.290Z,102534.59
2017-09-27T08:53:20.367Z,102539.19
2017-09-27T08:55:48.678Z,102536.23
2017-09-27T08:58:17.781Z,102542.13
2017-09-27T09:00:46.082Z,102539.13
2017-09-27T09:03:14.380Z,102543.49
2017-09-27T09:05:42.737Z,102536.95
2017-09-27T09:08:11.063Z,102534.46
2017-09-27T09:10:39.382Z,102535.78
2017-09-27T09:13:08.464Z,102535.09
2017-09-27T09:15:36.790Z,102529.86
2017-09-27T09:18:05.104Z,102519.75
2017-09-27T09:20:33.510Z,102521.33
2017-09-27T09:23:01.823Z,102525.09
2017-09-27T09:25:30.133Z,102522.92
2017-09-27T09:27:58.443Z,102529.14
2017-09-27T09:30:26.758Z,102530.57
2017-09-27T09:32:55.072Z,102525.52
2017-09-27T09:35:23.391Z,102527.00
2017-09-27T09:37:51.716Z,102523.44
2017-09-27T09:40:20.018Z,102527.45
2017-09-27T09:42:48.362Z,102519.59
2017-09-27T09:49:09.706Z,102518.37
2017-09-27T09:51:38.009Z,102511.80
2017-09-27T09:54:06.340Z,102513.52
2017-09-27T09:56:35.441Z,102508.55
2017-09-27T09:59:04.542Z,102509.01
2017-09-27T10:01:33.697Z,102501.97
2017-09-27T10:04:02.088Z,102509.25
2017-09-27T10:06:30.430Z,102505.02
2017-09-27T10:08:58.751Z,102512.72
2017-09-27T10:11:27.071Z,102510.12
2017-09-27T10:13:56.179Z,102511.80
2017-09-27T10:16:25.248Z,102503.45
2017-09-27T10:18:53.593Z,102507.80
2017-09-27T10:21:21.914Z,102507.23
2017-09-27T10:23:50.228Z,102508.63
2017-09-27T10:26:18.561Z,102505.75
2017-09-27T10:28:46.882Z,102498.55
2017-09-27T10:31:15.210Z,102493.94
2017-09-27T10:33:43.522Z,102487.09
2017-09-27T11:04:33.132Z,102472.31
2017-09-27T11:07:01.456Z,102472.44
2017-09-27T11:09:29.786Z,102476.18
2017-09-27T11:11:58.085Z,102477.58
2017-09-27T11:14:26.434Z,102475.44
2017-09-27T11:16:54.730Z,102465.41
2017-09-27T11:19:23.040Z,102464.08
2017-09-27T11:21:51.350Z,102464.43
2017-09-27T11:24:19.669Z,102456.55
2017-09-27T11:26:47.996Z,102456.16
2017-09-27T11:29:17.070Z,102446.95
2017-09-27T11:31:46.147Z,102448.08
2017-09-27T11:34:14.487Z,102448.73
2017-09-27T11:36:43.562Z,102437.23
2017-09-27T11:41:50.332Z,102440.81
2017-09-27T11:44:19.446Z,102439.90
2017-09-27T11:46:48.520Z,102441.16
2017-09-27T11:49:16.852Z,102435.55
2017-09-27T11:51:45.934Z,102436.89
2017-09-27T11:54:15.038Z,102436.46
2017-09-27T11:56:44.121Z,102437.20
2017-09-27T11:59:12.448Z,102445.91
2017-09-27T12:01:40.754Z,102439.28
2017-09-27T12:04:09.063Z,102435.63
2017-09-27T12:06:37.428Z,102433.45
2017-09-27T12:09:05.742Z,102424.20
2017-09-27T12:11:34.728Z,102427.02
2017-09-27T12:14:03.040Z,102425.36
2017-09-27T12:16:32.116Z,102417.13
2017-09-27T12:19:00.452Z,102413.07
2017-09-27T12:21:28.770Z,102413.18
2017-09-27T12:23:57.083Z,102412.84
2017-09-27T12:26:26.172Z,102409.09
2017-09-27T12:28:55.253Z,102412.17
2017-09-27T12:31:23.554Z,102407.48
2017-09-27T12:33:52.814Z,102408.27
2017-09-27T12:36:21.122Z,102395.89
2017-09-27T12:38:49.423Z,102401.19
2017-09-27T12:41:18.506Z,102397.20
2017-09-27T12:43:47.624Z,102390.62
2017-09-27T12:46:16.700Z,102391.73
2017-09-27T12:48:45.076Z,102396.41
2017-09-27T12:51:13.403Z,102393.27
2017-09-27T12:53:41.712Z,102390.77
2017-09-27T12:56:10.040Z,102389.89
2017-09-27T12:58:38.361Z,102388.00
2017-09-27T13:01:06.675Z,102386.84
2017-09-27T13:03:34.992Z,102387.77
2017-09-27T13:06:03.330Z,102383.09
2017-09-27T13:08:31.623Z,102378.57
2017-09-27T13:10:59.938Z,102380.23
2017-09-27T13:13:29.018Z,102384.07
2017-09-27T13:15:57.312Z,102382.70
2017-09-27T13:18:25.631Z,102386.02
2017-09-27T13:20:53.935Z,102378.06
2017-09-27T13:23:22.248Z,102378.41
2017-09-27T13:25:50.593Z,102375.78
2017-09-27T13:28:18.934Z,102373.62
2017-09-27T13:30:48.007Z,102377.53
2017-09-27T13:33:16.316Z,102374.11
2017-09-27T13:35:45.384Z,102372.08
2017-09-27T13:38:13.718Z,102371.98
2017-09-27T13:40:42.030Z,102365.95
2017-09-27T13:43:10.340Z,102363.72
2017-09-27T13:45:38.677Z,102365.05
2017-09-27T13:48:07.000Z,102361.14
2017-09-27T13:50:35.312Z,102368.09
2017-09-27T13:53:03.650Z,102363.80
2017-09-27T13:55:31.963Z,102357.49
2017-09-27T13:58:01.072Z,102358.41
2017-09-27T14:00:30.134Z,102359.42
2017-09-27T14:02:58.473Z,102358.13
2017-09-27T14:05:26.780Z,102354.16
2017-09-27T14:07:55.093Z,102358.02
2017-09-27T14:10:23.416Z,102353.80
2017-09-27T14:12:51.708Z,102349.09
2017-09-27T14:15:20.046Z,102349.06
2017-09-27T14:17:48.348Z,102348.87
2017-09-27T14:20:16.656Z,102346.73
2017-09-27T14:22:44.962Z,102344.17
2017-09-27T14:25:13.306Z,102344.06
2017-09-27T14:27:41.606Z,102342.75
2017-09-27T14:30:09.922Z,102342.67
2017-09-27T14:32:38.226Z,102334.34
2017-09-27T14:35:07.293Z,102333.84
2017-09-27T14:37:35.605Z,102326.50
2017-09-27T14:40:04.672Z,102328.56
2017-09-27T14:42:33.004Z,102317.41
2017-09-27T14:45:01.325Z,102325.02
2017-09-27T14:47:29.647Z,102320.50
2017-09-27T14:49:57.994Z,102311.41
2017-09-27T14:52:26.324Z,102318.53
2017-09-27T14:54:54.646Z,102321.62
2017-09-27T14:57:22.954Z,102320.14
2017-09-27T14:59:51.250Z,102321.31
2017-09-27T15:02:20.327Z,102318.72
2017-09-27T15:04:48.645Z,102313.11
2017-09-27T15:07:17.724Z,102322.61
2017-09-27T15:09:46.787Z,102320.95
2017-09-27T15:12:15.920Z,102314.58
2017-09-27T15:14:44.227Z,102314.64
2017-09-27T15:17:13.328Z,102315.29
2017-09-27T15:19:42.394Z,102313.30
2017-09-27T15:22:10.696Z,102305.56
2017-09-27T15:24:39.778Z,102309.33
2017-09-27T15:27:08.109Z,102307.52
2017-09-27T15:29:36.420Z,102308.28
2017-09-27T15:32:04.737Z,102311.94
2017-09-27T15:34:33.826Z,102310.66
2017-09-27T15:37:02.139Z,102312.34
2017-09-27T15:39:30.449Z,102314.42
2017-09-27T15:41:58.851Z,102310.05
2017-09-27T15:44:27.159Z,102309.98
2017-09-27T15:46:55.474Z,102307.75
2017-09-27T15:49:23.789Z,102308.17
2017-09-27T15:51:52.105Z,102307.11
2017-09-27T15:54:20.497Z,102303.68
2017-09-27T15:56:49.604Z,102313.19
2017-09-27T15:59:18.699Z,102306.17
2017-09-27T16:01:47.847Z,102309.03
2017-09-27T16:04:16.157Z,102312.95
2017-09-27T16:06:44.460Z,102304.58
2017-09-27T16:09:13.562Z,102304.34
2017-09-27T16:11:42.635Z,102311.73
2017-09-27T16:14:11.081Z,102308.90
2017-09-27T16:16:39.403Z,102309.61
2017-09-27T16:19:07.724Z,102307.05
2017-09-27T16:21:36.028Z,102311.42
2017-09-27T16:24:04.331Z,102305.88
2017-09-27T16:26:32.655Z,102304.52
2017-09-27T16:29:01.714Z,102312.36
2017-09-27T16:31:30.019Z,102309.50
2017-09-27T16:33:58.348Z,102315.45
2017-09-27T16:36:26.667Z,102326.13
2017-09-27T16:38:54.985Z,102314.08
2017-09-27T16:41:24.053Z,102316.12
2017-09-27T16:43:52.375Z,102322.80
2017-09-27T16:46:20.695Z,102327.09
2017-09-27T16:48:49.005Z,102323.25
2017-09-27T16:51:17.316Z,102322.35
2017-09-27T16:53:45.628Z,102319.13
2017-09-27T16:56:13.931Z,102319.19
2017-09-27T16:58:42.245Z,102324.66
2017-09-27T17:01:11.336Z,102318.86
2017-09-27T17:03:39.774Z,102321.87
2017-09-27T17:06:08.111Z,102322.37
2017-09-27T17:08:37.211Z,102319.92
2017-09-27T17:11:06.291Z,102321.57
2017-09-27T17:13:34.588Z,102319.13
2017-09-27T17:16:03.685Z,102328.77
2017-09-27T17:18:32.798Z,102324.77
2017-09-27T17:21:01.858Z,102322.20
2017-09-27T17:23:30.151Z,102326.22
2017-09-27T17:25:58.464Z,102322.26
2017-09-27T17:28:27.534Z,102327.94
2017-09-27T17:30:55.867Z,102329.77
2017-09-27T17:33:24.173Z,102331.27
2017-09-27T17:35:53.269Z,102343.08
2017-09-27T17:38:21.597Z,102338.59
2017-09-27T17:40:50.686Z,102334.02
2017-09-27T17:43:19.013Z,102335.52
2017-09-27T17:45:47.323Z,102336.30
2017-09-27T17:48:15.640Z,102337.67
2017-09-27T17:50:44.745Z,102337.17
2017-09-27T17:53:13.806Z,102337.20
2017-09-27T17:55:42.128Z,102340.61
2017-09-27T17:58:11.220Z,102328.89
2017-09-27T18:00:40.301Z,102333.86
2017-09-27T18:03:08.619Z,102330.76
2017-09-27T18:08:57.446Z,102331.75
2017-09-27T18:11:31.430Z,102335.45
2017-09-27T18:17:25.186Z,102332.81
2017-09-27T18:19:53.707Z,102338.91
2017-09-27T18:22:22.804Z,102345.39
2017-09-27T18:24:51.112Z,102344.30
2017-09-27T18:27:19.428Z,102348.69
2017-09-27T18:29:47.736Z,102343.70
2017-09-27T18:32:16.068Z,102349.45
2017-09-27T18:34:44.465Z,102344.88
2017-09-27T18:37:12.788Z,102345.73
2017-09-27T18:39:41.104Z,102349.71
2017-09-27T18:42:10.163Z,102345.47
2017-09-27T18:44:39.275Z,102346.25
2017-09-27T18:47:08.362Z,102346.69
2017-09-27T18:49:36.672Z,102354.81
2017-09-27T18:52:05.758Z,102344.77
2017-09-27T18:54:34.059Z,102347.49
2017-09-27T18:57:03.140Z,102346.05
2017-09-27T18:59:31.435Z,102347.00
2017-09-27T19:02:00.509Z,102347.88
2017-09-27T19:04:29.596Z,102346.23
2017-09-27T19:06:57.890Z,102340.55
2017-09-27T19:09:26.196Z,102343.27
2017-09-27T19:11:55.262Z,102348.47
2017-09-27T19:14:23.586Z,102348.79
2017-09-27T19:16:52.676Z,102349.22
2017-09-27T19:19:21.770Z,102354.66
2017-09-27T19:21:50.827Z,102350.61
2017-09-27T19:24:19.168Z,102352.49
2017-09-27T19:26:47.473Z,102354.38
2017-09-27T19:29:15.845Z,102352.75
2017-09-27T19:31:44.182Z,102344.23
2017-09-27T19:34:12.506Z,102346.52
2017-09-27T19:36:40.813Z,102352.20
2017-09-27T19:39:09.213Z,102351.31
2017-09-27T19:41:37.547Z,102355.67
2017-09-27T19:44:05.857Z,102350.38
2017-09-27T19:46:34.170Z,102353.63
2017-09-27T19:49:02.682Z,102357.59
2017-09-27T19:51:31.749Z,102357.06
2017-09-27T19:54:00.076Z,102355.61
2017-09-27T19:56:28.380Z,102354.47
2017-09-27T19:58:56.698Z,102354.68
2017-09-27T20:01:25.018Z,102352.19
2017-09-27T20:03:53.338Z,102354.30
2017-09-27T20:06:21.648Z,102354.19
2017-09-27T20:08:49.941Z,102350.66
2017-09-27T20:11:19.029Z,102348.06
2017-09-27T20:13:47.357Z,102346.50
2017-09-27T20:16:15.666Z,102343.49
2017-09-27T20:18:43.964Z,102344.63
2017-09-27T20:21:12.288Z,102340.38
2017-09-27T20:23:40.609Z,102340.27
2017-09-27T20:26:08.912Z,102342.66
2017-09-27T20:28:37.215Z,102332.93
2017-09-27T20:31:06.324Z,102332.30
2017-09-27T20:33:35.418Z,102332.09
2017-09-27T20:36:04.497Z,102334.17
2017-09-27T20:38:32.817Z,102335.21
2017-09-27T20:41:01.149Z,102327.84
2017-09-27T20:43:29.604Z,102331.89
2017-09-27T20:45:57.941Z,102339.47
2017-09-27T20:48:27.049Z,102337.91
2017-09-27T20:50:56.137Z,102330.74
2017-09-27T20:53:25.225Z,102332.72
2017-09-27T20:55:53.543Z,102333.23
2017-09-27T20:58:21.848Z,102331.98
2017-09-27T21:00:50.375Z,102332.95
2017-09-27T21:03:20.188Z,102335.45
2017-09-27T21:05:49.268Z,102337.41
2017-09-27T21:08:17.578Z,102335.23
2017-09-27T21:10:45.898Z,102336.89
2017-09-27T21:13:14.221Z,102330.66
2017-09-27T21:15:43.260Z,102331.08
2017-09-27T21:18:12.348Z,102329.83
2017-09-27T21:20:41.432Z,102329.00
2017-09-27T21:23:09.759Z,102332.73
2017-09-27T21:25:38.054Z,102333.77
2017-09-27T21:28:06.382Z,102327.58
2017-09-27T21:30:35.471Z,102323.62
2017-09-27T21:33:03.767Z,102322.38
2017-09-27T21:35:32.873Z,102329.23
2017-09-27T21:38:01.171Z,102326.13
2017-09-27T21:40:29.493Z,102324.45
2017-09-27T21:42:57.818Z,102318.95
2017-09-27T21:45:26.900Z,102320.92
2017-09-27T21:47:55.253Z,102322.47
2017-09-27T21:50:23.559Z,102322.05
2017-09-27T21:52:51.871Z,102319.67
2017-09-27T21:55:20.188Z,102316.87
2017-09-27T21:57:48.497Z,102312.23
2017-09-27T22:00:16.807Z,102310.56
2017-09-27T22:02:45.115Z,102314.30
2017-09-27T22:05:13.420Z,102309.00
2017-09-27T22:07:41.710Z,102307.64
2017-09-27T22:10:10.012Z,102304.01
2017-09-27T22:12:39.165Z,102300.61
2017-09-27T22:15:07.465Z,102304.94
2017-09-27T22:17:35.877Z,102308.35
2017-09-27T22:20:04.191Z,102311.77
2017-09-27T22:22:33.270Z,102308.34
2017-09-27T22:25:01.634Z,102303.88
2017-09-27T22:27:29.949Z,102309.51
2017-09-27T22:29:59.041Z,102311.68
2017-09-27T22:32:28.111Z,102312.93
2017-09-27T22:34:56.433Z,102312.20
2017-09-27T22:37:25.541Z,102310.95
2017-09-27T22:39:53.859Z,102307.94
2017-09-27T22:42:22.160Z,102308.36
2017-09-27T22:44:50.473Z,102308.88
2017-09-27T22:47:19.567Z,102308.14
2017-09-27T22:49:48.651Z,102303.37
2017-09-27T22:52:16.972Z,102309.80
2017-09-27T22:54:45.273Z,102307.41
2017-09-27T22:57:13.589Z,102306.69
2017-09-27T22:59:41.960Z,102306.17
2017-09-27T23:02:10.277Z,102305.95
2017-09-27T23:04:39.345Z,102294.67
2017-09-27T23:07:07.668Z,102305.03
2017-09-27T23:09:36.736Z,102308.25
2017-09-27T23:12:05.176Z,102302.64
2017-09-27T23:14:33.479Z,102296.52
2017-09-27T23:17:01.786Z,102300.25
2017-09-27T23:19:30.119Z,102303.14
2017-09-27T23:21:58.432Z,102296.19
2017-09-27T23:24:26.756Z,102289.45
2017-09-27T23:26:55.836Z,102289.17
2017-09-27T23:29:24.151Z,102285.22
2017-09-27T23:31:52.487Z,102287.19
2017-09-27T23:34:20.846Z,102284.38
2017-09-27T23:36:49.145Z,102280.23
2017-09-27T23:39:17.444Z,102270.46
2017-09-27T23:41:45.772Z,102269.45
2017-09-27T23:44:14.080Z,102261.87
2017-09-27T23:46:42.392Z,102259.79
2017-09-27T23:49:11.492Z,102269.12
2017-09-27T23:51:39.808Z,102270.57
2017-09-27T23:54:08.127Z,102273.37
2017-09-27T23:56:36.483Z,102278.76
2017-09-27T23:59:04.786Z,102269.53
